createdAt,value
2018-07-06T00:00:38.438Z,12.68
2018-07-06T00:03:18.166Z,10.90
2018-07-06T00:05:57.862Z,9.90
2018-07-06T00:08:38.019Z,12.17
2018-07-06T00:11:17.670Z,11.57
2018-07-06T00:13:57.278Z,12.93
2018-07-06T00:16:36.890Z,11.70
2018-07-06T00:19:16.515Z,12.00
2018-07-06T00:21:56.369Z,14.83
2018-07-06T00:24:37.234Z,13.13
2018-07-06T00:27:16.971Z,13.53
2018-07-06T00:29:56.587Z,13.75
2018-07-06T00:32:36.376Z,13.07
2018-07-06T00:35:10.454Z,12.53
2018-07-06T00:37:50.163Z,15.23
2018-07-06T00:40:30.225Z,11.30
2018-07-06T00:43:09.886Z,14.53
2018-07-06T00:45:49.607Z,12.73
2018-07-06T00:48:29.202Z,12.17
2018-07-06T00:51:08.926Z,13.20
2018-07-06T00:53:48.624Z,12.33
2018-07-06T00:56:30.292Z,11.72
2018-07-06T00:59:03.958Z,14.90
2018-07-06T01:01:46.720Z,10.70
2018-07-06T01:04:29.035Z,11.12
2018-07-06T01:07:08.770Z,11.33
2018-07-06T01:09:48.559Z,9.70
2018-07-06T01:12:34.379Z,9.63
2018-07-06T01:15:19.570Z,9.80
2018-07-06T01:17:53.274Z,12.43
2018-07-06T01:20:32.998Z,12.25
2018-07-06T01:23:12.681Z,9.20
2018-07-06T01:25:52.814Z,12.33
2018-07-06T01:28:33.973Z,11.00
2018-07-06T01:31:13.746Z,9.98
2018-07-06T01:33:53.750Z,10.43
2018-07-06T01:36:33.773Z,11.07
2018-07-06T01:39:13.574Z,10.60
2018-07-06T01:41:53.274Z,12.23
2018-07-06T01:44:33.625Z,10.97
2018-07-06T01:47:13.409Z,17.00
2018-07-06T01:49:52.902Z,10.97
2018-07-06T01:52:32.570Z,9.75
2018-07-06T01:55:12.242Z,10.23
2018-07-06T01:57:51.757Z,9.70
2018-07-06T02:00:31.769Z,11.30
2018-07-06T02:03:11.478Z,9.90
2018-07-06T02:05:45.320Z,11.20
2018-07-06T02:10:21.802Z,14.00
2018-07-06T02:13:01.369Z,12.77
2018-07-06T02:15:41.004Z,9.67
2018-07-06T02:18:20.807Z,10.65
2018-07-06T02:21:00.394Z,10.03
2018-07-06T02:23:40.146Z,14.63
2018-07-06T02:26:19.791Z,11.23
2018-07-06T02:28:59.379Z,17.80
2018-07-06T02:31:39.050Z,15.40
2018-07-06T02:34:19.214Z,14.37
2018-07-06T02:36:59.123Z,21.20
2018-07-06T02:39:38.863Z,10.40
2018-07-06T02:42:18.490Z,19.27
2018-07-06T02:44:58.215Z,9.67
2018-07-06T02:47:31.754Z,9.50
2018-07-06T02:50:11.582Z,15.90
2018-07-06T02:52:51.283Z,8.50
2018-07-06T02:55:31.037Z,9.85
2018-07-06T02:58:10.647Z,8.13
2018-07-06T03:00:50.422Z,16.07
2018-07-06T03:03:30.078Z,9.47
2018-07-06T03:06:11.295Z,8.60
2018-07-06T03:08:50.976Z,10.53
2018-07-06T03:11:30.767Z,12.85
2018-07-06T03:14:10.324Z,12.70
2018-07-06T03:16:43.968Z,11.80
2018-07-06T03:19:23.658Z,11.00
2018-07-06T03:22:03.907Z,13.37
2018-07-06T03:24:43.632Z,10.47
2018-07-06T03:27:17.433Z,8.10
2018-07-06T03:29:57.035Z,10.93
2018-07-06T03:32:36.850Z,10.40
2018-07-06T03:35:16.530Z,8.93
2018-07-06T03:37:56.779Z,11.00
2018-07-06T03:40:36.854Z,8.68
2018-07-06T03:43:16.473Z,8.85
2018-07-06T03:45:56.077Z,9.50
2018-07-06T03:48:35.808Z,9.90
2018-07-06T03:51:15.794Z,8.03
2018-07-06T03:53:55.781Z,8.40
2018-07-06T03:56:35.439Z,11.80
2018-07-06T03:59:15.072Z,13.13
2018-07-06T04:01:54.701Z,8.33
2018-07-06T04:04:34.274Z,10.98
2018-07-06T04:07:13.787Z,7.37
2018-07-06T04:09:54.323Z,6.17
2018-07-06T04:12:33.956Z,6.33
2018-07-06T04:15:13.513Z,6.83
2018-07-06T04:17:53.007Z,6.17
2018-07-06T04:20:32.709Z,7.52
2018-07-06T04:23:12.347Z,7.77
2018-07-06T04:25:52.052Z,6.50
2018-07-06T04:28:31.706Z,6.28
2018-07-06T04:31:11.390Z,7.80
2018-07-06T04:33:50.978Z,7.30
2018-07-06T04:36:30.751Z,5.70
2018-07-06T04:39:10.904Z,6.80
2018-07-06T04:41:50.839Z,7.00
2018-07-06T04:44:30.534Z,6.70
2018-07-06T04:47:10.376Z,7.53
2018-07-06T04:49:50.142Z,6.43
2018-07-06T04:52:29.898Z,7.00
2018-07-06T04:55:09.498Z,6.17
2018-07-06T04:57:49.673Z,5.60
2018-07-06T05:00:29.890Z,6.50
2018-07-06T05:03:09.603Z,11.63
2018-07-06T05:05:49.380Z,7.20
2018-07-06T05:08:29.174Z,8.13
2018-07-06T05:11:09.130Z,7.47
2018-07-06T05:13:49.675Z,6.20
2018-07-06T05:16:29.423Z,6.77
2018-07-06T05:19:09.066Z,6.90
2018-07-06T05:21:48.745Z,9.50
2018-07-06T05:24:28.690Z,7.00
2018-07-06T05:27:08.380Z,7.83
2018-07-06T05:29:48.730Z,7.70
2018-07-06T05:32:28.454Z,7.80
2018-07-06T05:35:08.088Z,7.30
2018-07-06T05:37:42.272Z,7.50
2018-07-06T05:40:21.916Z,6.23
2018-07-06T05:43:01.402Z,8.23
2018-07-06T05:45:41.898Z,7.63
2018-07-06T05:48:21.639Z,8.80
2018-07-06T05:51:01.254Z,6.47
2018-07-06T05:53:40.971Z,7.10
2018-07-06T05:56:20.568Z,8.48
2018-07-06T05:59:00.201Z,6.93
2018-07-06T06:01:40.027Z,10.68
2018-07-06T06:04:20.274Z,5.27
2018-07-06T06:06:59.894Z,5.80
2018-07-06T06:09:29.614Z,6.23
2018-07-06T06:11:58.066Z,6.20
2018-07-06T06:14:26.983Z,6.40
2018-07-06T06:16:55.494Z,6.57
2018-07-06T06:19:24.006Z,6.65
2018-07-06T06:21:52.983Z,7.10
2018-07-06T06:24:21.506Z,4.54
2018-07-06T06:26:50.095Z,8.00
2018-07-06T06:29:18.614Z,5.87
2018-07-06T06:31:47.336Z,8.43
2018-07-06T06:42:55.583Z,6.03
2018-07-06T06:45:24.707Z,5.77
2018-07-06T06:47:53.397Z,6.80
2018-07-06T06:50:22.095Z,7.20
2018-07-06T06:52:50.593Z,8.80
2018-07-06T06:55:19.130Z,6.37
2018-07-06T06:57:47.670Z,8.33
2018-07-06T07:00:21.056Z,8.04
2018-07-06T07:02:46.412Z,7.57
2018-07-06T07:05:17.100Z,8.23
2018-07-06T07:07:45.873Z,15.13
2018-07-06T07:28:14.404Z,7.55
2018-07-06T07:34:05.951Z,6.87
2018-07-06T07:36:35.136Z,6.42
2018-07-06T07:39:04.650Z,7.10
2018-07-06T07:41:34.326Z,6.20
2018-07-06T07:44:03.008Z,6.67
2018-07-06T07:46:32.240Z,6.55
2018-07-06T07:49:01.287Z,7.23
2018-07-06T07:52:07.296Z,7.30
2018-07-06T07:54:44.307Z,5.90
2018-07-06T07:57:12.474Z,6.53
2018-07-06T07:59:41.916Z,9.33
2018-07-06T08:02:10.445Z,6.43
2018-07-06T08:04:39.007Z,5.87
2018-07-06T08:07:07.707Z,5.85
2018-07-06T08:09:37.008Z,6.00
2018-07-06T08:12:05.748Z,6.17
2018-07-06T08:14:34.365Z,5.60
2018-07-06T08:17:02.853Z,5.47
2018-07-06T08:19:31.345Z,5.43
2018-07-06T08:21:59.884Z,9.70
2018-07-06T08:24:28.118Z,5.40
2018-07-06T08:26:56.580Z,5.23
2018-07-06T08:29:25.110Z,5.77
2018-07-06T08:31:54.355Z,5.20
2018-07-06T08:34:34.624Z,5.50
2018-07-06T08:38:02.330Z,7.43
2018-07-06T08:40:30.908Z,7.40
2018-07-06T08:43:00.581Z,5.20
2018-07-06T08:45:29.991Z,4.50
2018-07-06T08:47:59.031Z,4.95
2018-07-06T08:50:27.666Z,4.47
2018-07-06T08:52:57.150Z,4.50
2018-07-06T08:55:26.218Z,4.23
2018-07-06T08:57:56.045Z,5.10
2018-07-06T09:00:24.569Z,4.30
2018-07-06T09:02:53.243Z,5.40
2018-07-06T09:05:22.048Z,6.83
2018-07-06T09:07:50.722Z,4.83
2018-07-06T09:10:19.242Z,4.40
2018-07-06T09:12:47.826Z,4.80
2018-07-06T09:15:17.876Z,4.60
2018-07-06T09:17:46.401Z,4.20
2018-07-06T09:28:14.504Z,5.30
2018-07-06T09:30:42.715Z,6.13
2018-07-06T09:33:11.579Z,6.10
2018-07-06T09:35:40.825Z,5.27
2018-07-06T09:38:09.374Z,5.97
2018-07-06T09:40:38.866Z,6.37
2018-07-06T09:43:07.799Z,7.87
2018-07-06T09:45:36.282Z,9.23
2018-07-06T09:48:05.278Z,9.13
2018-07-06T09:50:33.799Z,8.98
2018-07-06T09:53:02.727Z,9.57
2018-07-06T09:55:31.219Z,9.27
2018-07-06T09:58:00.207Z,9.73
2018-07-06T10:00:33.942Z,9.65
2018-07-06T10:03:02.552Z,9.53
2018-07-06T10:05:31.048Z,9.90
2018-07-06T10:07:59.612Z,11.00
2018-07-06T10:10:27.942Z,13.37
2018-07-06T10:12:57.500Z,12.13
2018-07-06T10:15:26.118Z,16.03
2018-07-06T10:17:54.659Z,15.57
2018-07-06T10:20:23.613Z,16.32
2018-07-06T10:22:52.499Z,18.50
2018-07-06T10:25:21.082Z,17.82
2018-07-06T10:28:01.618Z,16.30
2018-07-06T10:30:39.482Z,17.37
2018-07-06T10:33:08.814Z,14.10
2018-07-06T10:35:37.226Z,13.00
2018-07-06T10:38:06.194Z,11.30
2018-07-06T10:40:34.746Z,12.70
2018-07-06T10:43:03.311Z,12.83
2018-07-06T10:45:31.907Z,7.97
2018-07-06T10:48:00.086Z,9.50
2018-07-06T10:50:28.742Z,11.90
2018-07-06T10:52:57.382Z,11.53
2018-07-06T10:55:25.885Z,10.93
2018-07-06T10:57:54.442Z,11.73
2018-07-06T11:00:23.519Z,12.63
2018-07-06T11:02:51.719Z,12.37
2018-07-06T11:05:20.229Z,12.05
2018-07-06T11:07:49.110Z,11.03
2018-07-06T11:10:17.661Z,12.20
2018-07-06T11:12:46.219Z,12.00
2018-07-06T11:24:17.100Z,11.60
2018-07-06T11:26:45.770Z,13.70
2018-07-06T11:29:15.576Z,12.18
2018-07-06T11:31:44.492Z,13.60
2018-07-06T11:34:13.331Z,12.47
2018-07-06T11:36:41.933Z,12.37
2018-07-06T11:39:11.166Z,12.47
2018-07-06T11:41:45.998Z,11.80
2018-07-06T11:54:24.351Z,9.60
2018-07-06T11:56:52.708Z,13.77
2018-07-06T11:59:21.326Z,15.33
2018-07-06T12:01:50.323Z,16.40
2018-07-06T12:04:19.018Z,14.97
2018-07-06T12:06:48.304Z,14.70
2018-07-06T12:09:18.303Z,15.65
2018-07-06T12:11:46.978Z,18.87
2018-07-06T12:31:41.401Z,20.08
2018-07-06T12:34:10.272Z,23.07
2018-07-06T12:38:31.194Z,24.27
2018-07-06T12:40:59.744Z,26.00
2018-07-06T12:43:28.921Z,25.40
2018-07-06T12:45:57.879Z,26.42
2018-07-06T12:48:26.388Z,27.70
2018-07-06T12:50:54.595Z,27.90
2018-07-06T12:53:23.158Z,30.50
2018-07-06T12:55:51.979Z,30.80
2018-07-06T12:58:20.537Z,26.42
2018-07-06T13:00:49.457Z,26.83
2018-07-06T13:03:18.176Z,26.23
2018-07-06T13:05:46.851Z,28.23
2018-07-06T13:26:49.984Z,29.42
2018-07-06T13:29:18.547Z,22.57
2018-07-06T13:31:47.166Z,28.07
2018-07-06T13:42:20.299Z,35.13
2018-07-06T13:44:48.811Z,29.50
2018-07-06T13:47:17.584Z,27.20
2018-07-06T13:49:46.323Z,30.10
2018-07-06T14:02:23.482Z,28.52
2018-07-06T14:04:51.963Z,30.27
2018-07-06T14:07:20.454Z,30.75
2018-07-06T14:09:48.669Z,30.93
2018-07-06T14:12:17.189Z,31.27
2018-07-06T14:14:45.715Z,37.50
2018-07-06T14:31:41.446Z,32.50
2018-07-06T14:34:10.442Z,29.17
2018-07-06T14:36:38.629Z,30.80
2018-07-06T14:39:07.756Z,28.90
2018-07-06T14:41:36.514Z,28.30
2018-07-06T14:44:05.098Z,27.13
2018-07-06T14:46:33.663Z,25.48
2018-07-06T14:49:02.224Z,24.07
2018-07-06T14:51:30.701Z,24.20
2018-07-06T14:54:00.070Z,23.30
2018-07-06T14:56:28.607Z,22.20
2018-07-06T14:58:57.158Z,18.40
2018-07-06T15:01:26.028Z,19.27
2018-07-06T15:03:55.019Z,18.60
2018-07-06T15:06:23.611Z,21.37
2018-07-06T15:08:52.276Z,19.13
2018-07-06T15:11:20.759Z,18.80
2018-07-06T15:13:49.403Z,19.90
2018-07-06T15:16:19.139Z,19.00
2018-07-06T15:18:48.104Z,17.50
2018-07-06T15:21:18.072Z,18.42
2018-07-06T15:23:46.659Z,17.53
2018-07-06T15:31:42.976Z,19.50
2018-07-06T15:34:11.519Z,16.70
2018-07-06T15:36:40.182Z,18.63
2018-07-06T15:39:08.755Z,17.50
2018-07-06T15:41:37.450Z,15.13
2018-07-06T15:44:05.947Z,14.30
2018-07-06T15:46:34.459Z,10.53
2018-07-06T15:49:02.630Z,9.10
2018-07-06T15:51:31.160Z,8.53
2018-07-06T15:54:00.075Z,8.03
2018-07-06T15:56:28.247Z,8.77
2018-07-06T15:58:56.734Z,8.40
2018-07-06T16:01:25.923Z,8.00
2018-07-06T16:03:55.012Z,8.70
2018-07-06T16:06:23.278Z,10.83
2018-07-06T16:08:53.813Z,10.63
2018-07-06T16:11:22.303Z,11.25
2018-07-06T16:13:50.898Z,12.03
2018-07-06T16:16:19.855Z,11.43
2018-07-06T16:18:48.334Z,14.53
2018-07-06T16:21:17.410Z,11.60
2018-07-06T16:23:45.898Z,12.97
2018-07-06T16:43:59.835Z,11.63
2018-07-06T16:46:28.454Z,22.90
2018-07-06T16:48:57.002Z,11.77
2018-07-06T16:51:25.517Z,12.33
2018-07-06T16:53:54.068Z,13.20
2018-07-06T16:56:22.567Z,13.47
2018-07-06T16:58:51.386Z,13.87
2018-07-06T17:01:20.186Z,13.17
2018-07-06T17:03:48.655Z,13.07
2018-07-06T17:06:19.211Z,13.70
2018-07-06T17:08:47.661Z,15.00
2018-07-06T17:17:37.568Z,13.15
2018-07-06T17:20:06.161Z,16.30
2018-07-06T17:22:34.734Z,14.83
2018-07-06T17:25:03.921Z,19.37
2018-07-06T17:27:32.531Z,14.10
2018-07-06T17:30:00.703Z,14.57
2018-07-06T17:32:29.334Z,23.40
2018-07-06T17:34:57.859Z,16.00
2018-07-06T17:37:26.382Z,13.80
2018-07-06T17:39:55.052Z,12.40
2018-07-06T17:42:23.258Z,16.10
2018-07-06T17:44:51.748Z,12.87
2018-07-06T17:47:20.475Z,15.13
2018-07-06T17:49:49.015Z,17.73
2018-07-06T17:52:17.527Z,13.23
2018-07-06T17:54:46.180Z,11.50
2018-07-06T18:16:55.737Z,12.55
2018-07-06T18:19:24.859Z,16.97
2018-07-06T18:21:53.646Z,14.73
2018-07-06T18:24:22.343Z,18.30
2018-07-06T18:26:50.814Z,18.30
2018-07-06T18:29:19.291Z,17.43
2018-07-06T18:31:47.815Z,17.30
2018-07-06T18:34:17.391Z,20.12
2018-07-06T18:36:46.027Z,18.50
2018-07-06T18:56:52.620Z,16.50
2018-07-06T18:59:38.828Z,18.73
2018-07-06T19:02:07.433Z,17.73
2018-07-06T19:04:35.978Z,21.90
2018-07-06T19:07:05.854Z,16.10
2018-07-06T19:09:34.422Z,18.73
2018-07-06T19:12:02.967Z,18.70
2018-07-06T19:14:32.021Z,18.52
2018-07-06T19:17:00.542Z,17.10
2018-07-06T19:19:29.053Z,18.93
2018-07-06T19:21:57.571Z,16.35
2018-07-06T19:24:26.174Z,15.77
2018-07-06T19:26:54.798Z,15.07
2018-07-06T19:29:23.440Z,16.77
2018-07-06T19:31:52.008Z,16.77
2018-07-06T19:34:20.528Z,16.37
2018-07-06T19:36:49.190Z,14.33
2018-07-06T19:39:18.998Z,14.93
2018-07-06T19:41:47.654Z,15.40
2018-07-06T19:52:47.125Z,15.20
2018-07-06T19:55:17.489Z,14.50
2018-07-06T19:57:45.662Z,13.20
2018-07-06T20:07:53.696Z,18.07
2018-07-06T20:10:22.561Z,12.83
2018-07-06T20:12:51.395Z,14.40
2018-07-06T20:15:20.318Z,18.00
2018-07-06T20:17:49.070Z,14.13
2018-07-06T20:20:17.956Z,11.38
2018-07-06T20:22:46.526Z,13.05
2018-07-06T20:41:23.217Z,11.25
2018-07-06T20:54:31.763Z,16.33
2018-07-06T20:57:00.327Z,13.93
2018-07-06T20:59:28.990Z,14.30
2018-07-06T21:01:57.711Z,13.35
2018-07-06T21:04:26.269Z,10.17
2018-07-06T21:06:54.811Z,16.83
2018-07-06T21:09:23.908Z,15.13
2018-07-06T21:11:52.678Z,16.20
2018-07-06T21:14:21.182Z,12.30
2018-07-06T21:16:49.865Z,13.87
2018-07-06T21:19:18.484Z,12.70
2018-07-06T21:21:47.306Z,17.87
2018-07-06T21:24:18.085Z,13.45
2018-07-06T21:26:46.636Z,17.83
2018-07-06T21:31:43.687Z,17.40
2018-07-06T21:34:12.499Z,17.10
2018-07-06T21:36:41.023Z,17.37
2018-07-06T21:39:09.716Z,18.00
2018-07-06T21:41:38.402Z,20.80
2018-07-06T21:44:06.991Z,18.70
2018-07-06T21:46:35.691Z,19.05
2018-07-06T21:49:04.263Z,18.43
2018-07-06T21:51:32.751Z,21.00
2018-07-06T21:54:01.280Z,26.17
2018-07-06T21:56:29.774Z,22.73
2018-07-06T21:58:58.269Z,27.10
2018-07-06T22:01:26.771Z,18.93
2018-07-06T22:03:55.255Z,22.40
2018-07-06T22:06:23.710Z,18.97
2018-07-06T22:08:52.461Z,21.53
2018-07-06T22:11:21.450Z,20.00
2018-07-06T22:13:49.881Z,19.87
2018-07-06T22:16:18.409Z,24.60
2018-07-06T22:18:46.898Z,20.60
2018-07-06T22:21:17.938Z,21.23
2018-07-06T22:23:46.474Z,25.10
2018-07-06T22:41:22.727Z,23.92
2018-07-06T22:43:51.362Z,23.60
2018-07-06T22:46:19.862Z,22.37
2018-07-06T22:48:48.662Z,24.60
2018-07-06T22:51:17.463Z,21.90
2018-07-06T22:53:45.999Z,27.77
2018-07-06T23:11:53.918Z,23.42
2018-07-06T23:14:23.074Z,25.30
2018-07-06T23:16:51.550Z,27.42
2018-07-06T23:19:20.074Z,27.37
2018-07-06T23:21:48.633Z,27.03
2018-07-06T23:24:17.555Z,25.07
2018-07-06T23:26:46.102Z,25.00
2018-07-06T23:31:42.173Z,24.00
2018-07-06T23:34:11.390Z,23.30
2018-07-06T23:36:39.875Z,29.57
2018-07-06T23:39:08.442Z,25.20
2018-07-06T23:41:37.091Z,21.83
2018-07-06T23:44:05.611Z,23.40
2018-07-06T23:46:34.166Z,21.40
2018-07-06T23:49:02.771Z,19.53
2018-07-06T23:51:31.238Z,21.33
2018-07-06T23:53:59.706Z,21.10
2018-07-06T23:56:28.425Z,24.53
2018-07-06T23:58:56.926Z,20.97
